createdAt,value
2023-11-26T00:00:14.891Z,99819.84
2023-11-26T00:02:43.612Z,99818.59
2023-11-26T00:05:12.302Z,99822.16
2023-11-26T00:07:40.985Z,99818.13
2023-11-26T00:10:11.410Z,99820.91
2023-11-26T00:12:39.974Z,99832.06
2023-11-26T00:15:10.951Z,99830.81
2023-11-26T00:17:40.112Z,99833.13
2023-11-26T00:20:09.797Z,99836.25
2023-11-26T00:22:38.473Z,99843.84
2023-11-26T00:25:07.670Z,99843.38
2023-11-26T00:27:36.686Z,99853.28
2023-11-26T00:30:06.885Z,99851.06
2023-11-26T00:32:36.173Z,99847.81
2023-11-26T00:35:05.354Z,99850.38
2023-11-26T00:37:35.107Z,99853.75
2023-11-26T00:40:03.800Z,99856.34
2023-11-26T00:42:32.358Z,99862.97
2023-11-26T00:45:01.002Z,99861.06
2023-11-26T00:47:30.249Z,99858.25
2023-11-26T00:50:03.367Z,99870.00
2023-11-26T00:52:34.279Z,99868.53
2023-11-26T00:55:03.189Z,99880.56
2023-11-26T00:57:31.832Z,99878.34
2023-11-26T01:00:00.378Z,99876.09
2023-11-26T01:02:31.964Z,99880.25
2023-11-26T01:05:00.780Z,99881.09
2023-11-26T01:07:32.597Z,99883.97
2023-11-26T01:10:01.909Z,99888.84
2023-11-26T01:12:30.535Z,99891.72
2023-11-26T01:14:59.148Z,99901.78
2023-11-26T01:17:27.837Z,99902.31
2023-11-26T01:19:56.455Z,99901.13
2023-11-26T01:22:26.791Z,99905.25
2023-11-26T01:24:55.369Z,99912.94
2023-11-26T01:27:23.912Z,99920.16
2023-11-26T01:29:52.552Z,99921.50
2023-11-26T01:32:21.320Z,99918.75
2023-11-26T01:34:50.131Z,99926.72
2023-11-26T01:37:18.886Z,99920.41
2023-11-26T01:39:47.845Z,99920.00
2023-11-26T01:42:16.576Z,99918.00
2023-11-26T01:47:13.496Z,99920.94
2023-11-26T01:49:42.736Z,99920.53
2023-11-26T01:52:15.043Z,99925.41
2023-11-26T01:54:45.672Z,99927.00
2023-11-26T01:57:17.207Z,99933.41
2023-11-26T01:59:46.199Z,99927.34
2023-11-26T02:02:14.909Z,99934.84
2023-11-26T02:04:44.024Z,99933.34
2023-11-26T02:07:13.501Z,99947.69
2023-11-26T02:09:42.478Z,99941.84
2023-11-26T02:12:12.347Z,99942.38
2023-11-26T02:14:40.911Z,99942.94
2023-11-26T02:17:09.518Z,99943.78
2023-11-26T02:19:41.695Z,99943.81
2023-11-26T02:22:10.897Z,99942.03
2023-11-26T02:24:44.340Z,99945.88
2023-11-26T02:27:13.365Z,99943.63
2023-11-26T02:29:42.899Z,99949.03
2023-11-26T02:32:11.829Z,99936.56
2023-11-26T02:34:40.403Z,99943.22
2023-11-26T02:37:09.133Z,99941.69
2023-11-26T02:39:37.689Z,99938.91
2023-11-26T02:42:06.520Z,99940.97
2023-11-26T02:44:35.060Z,99929.31
2023-11-26T02:47:03.664Z,99928.84
2023-11-26T02:49:32.303Z,99929.91
2023-11-26T02:52:01.164Z,99928.66
2023-11-26T02:54:30.131Z,99919.28
2023-11-26T02:56:58.787Z,99918.03
2023-11-26T02:59:27.382Z,99913.94
2023-11-26T03:02:02.535Z,99918.03
2023-11-26T03:04:31.159Z,99911.44
2023-11-26T03:07:00.792Z,99909.66
2023-11-26T03:09:52.190Z,99915.03
2023-11-26T03:12:38.894Z,99908.91
2023-11-26T03:15:07.956Z,99917.06
2023-11-26T03:17:36.541Z,99914.28
2023-11-26T03:20:05.419Z,99911.22
2023-11-26T03:22:34.500Z,99905.09
2023-11-26T03:25:03.071Z,99910.94
2023-11-26T03:27:31.637Z,99897.41
2023-11-26T03:30:00.250Z,99898.69
2023-11-26T03:32:31.765Z,99900.50
2023-11-26T03:35:00.588Z,99891.84
2023-11-26T03:37:29.200Z,99884.72
2023-11-26T03:39:57.795Z,99878.59
2023-11-26T03:42:29.301Z,99875.25
2023-11-26T03:44:58.412Z,99868.38
2023-11-26T03:47:27.072Z,99861.97
2023-11-26T03:49:55.689Z,99856.84
2023-11-26T03:52:25.746Z,99848.16
2023-11-26T03:54:54.429Z,99845.84
2023-11-26T03:57:23.055Z,99844.03
2023-11-26T03:59:51.812Z,99839.94
2023-11-26T04:02:21.067Z,99833.25
2023-11-26T04:04:49.741Z,99829.38
2023-11-26T04:07:18.269Z,99825.53
2023-11-26T04:09:48.094Z,99815.25
2023-11-26T04:12:16.781Z,99809.31
2023-11-26T04:14:59.410Z,99794.22
2023-11-26T04:17:28.927Z,99796.47
2023-11-26T04:19:57.906Z,99787.69
2023-11-26T04:22:29.885Z,99782.25
2023-11-26T04:24:58.440Z,99774.28
2023-11-26T04:27:28.135Z,99773.47
2023-11-26T04:29:56.748Z,99765.72
2023-11-26T04:32:25.356Z,99758.50
2023-11-26T04:34:53.998Z,99746.44
2023-11-26T04:37:22.873Z,99744.13
2023-11-26T04:39:51.720Z,99734.09
2023-11-26T04:42:20.413Z,99717.91
2023-11-26T04:44:48.931Z,99724.47
2023-11-26T04:47:17.576Z,99710.03
2023-11-26T04:49:46.409Z,99707.63
2023-11-26T04:52:15.272Z,99711.38
2023-11-26T04:54:43.849Z,99702.88
2023-11-26T04:57:12.843Z,99693.56
2023-11-26T04:59:41.611Z,99695.59
2023-11-26T05:02:12.567Z,99694.22
2023-11-26T05:04:41.870Z,99684.16
2023-11-26T05:07:10.672Z,99686.66
2023-11-26T05:09:39.437Z,99675.31
2023-11-26T05:12:09.429Z,99670.66
2023-11-26T05:14:38.404Z,99669.06
2023-11-26T05:17:07.185Z,99668.75
2023-11-26T05:19:35.746Z,99666.91
2023-11-26T05:22:05.368Z,99666.84
2023-11-26T05:24:34.023Z,99646.78
2023-11-26T05:27:03.150Z,99644.94
2023-11-26T05:29:31.801Z,99643.88
2023-11-26T05:32:00.707Z,99633.78
2023-11-26T05:34:29.309Z,99630.91
2023-11-26T05:36:57.941Z,99626.47
2023-11-26T05:39:26.897Z,99622.78
2023-11-26T05:41:55.470Z,99618.81
2023-11-26T05:44:24.023Z,99609.25
2023-11-26T05:46:52.590Z,99606.56
2023-11-26T05:49:21.138Z,99597.22
2023-11-26T05:51:49.732Z,99579.19
2023-11-26T05:54:20.508Z,99579.66
2023-11-26T05:56:49.069Z,99574.97
2023-11-26T05:59:17.794Z,99571.06
2023-11-26T06:01:46.805Z,99562.03
2023-11-26T06:04:15.516Z,99558.13
2023-11-26T06:06:46.044Z,99556.53
2023-11-26T06:09:15.114Z,99542.81
2023-11-26T06:11:43.660Z,99548.69
2023-11-26T06:14:12.220Z,99539.13
2023-11-26T06:16:44.296Z,99526.31
2023-11-26T06:19:13.635Z,99514.25
2023-11-26T06:21:42.235Z,99511.97
2023-11-26T06:24:11.624Z,99502.19
2023-11-26T06:26:40.457Z,99501.41
2023-11-26T06:29:09.933Z,99487.81
2023-11-26T06:31:38.445Z,99486.31
2023-11-26T06:34:07.268Z,99496.09
2023-11-26T06:36:35.779Z,99481.75
2023-11-26T06:39:08.458Z,99475.09
2023-11-26T06:41:41.165Z,99475.66
2023-11-26T06:44:09.858Z,99473.16
2023-11-26T06:46:38.944Z,99466.53
2023-11-26T06:49:07.581Z,99464.78
2023-11-26T06:51:36.329Z,99467.94
2023-11-26T06:54:04.742Z,99470.53
2023-11-26T06:56:33.086Z,99462.94
2023-11-26T06:59:01.727Z,99454.25
2023-11-26T07:01:30.272Z,99464.78
2023-11-26T07:03:59.346Z,99465.53
2023-11-26T07:06:28.031Z,99454.03
2023-11-26T07:08:56.631Z,99446.88
2023-11-26T07:11:25.362Z,99454.59
2023-11-26T07:13:54.632Z,99447.63
2023-11-26T07:16:24.095Z,99449.69
2023-11-26T07:18:53.192Z,99448.16
2023-11-26T07:21:22.165Z,99452.84
2023-11-26T07:23:50.753Z,99444.91
2023-11-26T07:26:23.086Z,99451.09
2023-11-26T07:28:54.706Z,99452.97
2023-11-26T07:31:29.746Z,99436.56
2023-11-26T07:33:58.828Z,99436.56
2023-11-26T07:36:28.034Z,99435.81
2023-11-26T07:39:00.910Z,99437.88
2023-11-26T07:41:29.874Z,99428.84
2023-11-26T07:43:59.660Z,99427.75
2023-11-26T07:46:28.203Z,99432.09
2023-11-26T07:48:57.219Z,99430.47
2023-11-26T07:51:25.652Z,99429.16
2023-11-26T07:53:54.318Z,99429.91
2023-11-26T07:56:24.061Z,99429.38
2023-11-26T07:58:52.577Z,99428.06
2023-11-26T08:01:24.569Z,99430.91
2023-11-26T08:03:55.641Z,99432.19
2023-11-26T08:06:24.096Z,99429.38
2023-11-26T08:08:52.486Z,99429.91
2023-11-26T08:11:22.028Z,99423.50
2023-11-26T08:13:50.553Z,99433.28
2023-11-26T08:16:19.832Z,99427.44
2023-11-26T08:18:48.437Z,99430.81
2023-11-26T08:21:18.191Z,99435.47
2023-11-26T08:23:46.843Z,99432.44
2023-11-26T08:26:17.646Z,99434.28
2023-11-26T08:28:46.289Z,99435.88
2023-11-26T08:31:14.849Z,99438.50
2023-11-26T08:33:47.168Z,99441.66
2023-11-26T08:36:20.514Z,99449.69
2023-11-26T08:38:50.388Z,99451.28
2023-11-26T08:41:27.225Z,99447.25
2023-11-26T08:43:59.558Z,99451.72
2023-11-26T08:46:29.195Z,99448.44
2023-11-26T08:48:58.969Z,99453.63
2023-11-26T08:51:28.875Z,99457.00
2023-11-26T08:53:58.258Z,99459.59
2023-11-26T08:56:28.032Z,99456.56
2023-11-26T08:58:56.705Z,99464.81
2023-11-26T09:01:25.366Z,99457.66
2023-11-26T09:03:53.975Z,99464.38
2023-11-26T09:06:22.684Z,99474.91
2023-11-26T09:08:53.835Z,99474.69
2023-11-26T09:11:22.472Z,99470.34
2023-11-26T09:13:53.707Z,99470.88
2023-11-26T09:16:22.426Z,99472.94
2023-11-26T09:18:51.234Z,99477.81
2023-11-26T09:21:20.679Z,99477.06
2023-11-26T09:23:49.260Z,99472.72
2023-11-26T09:26:17.699Z,99483.00
2023-11-26T09:28:51.296Z,99493.53
2023-11-26T09:31:25.296Z,99490.25
2023-11-26T09:33:53.831Z,99492.09
2023-11-26T09:36:22.303Z,99490.34
2023-11-26T09:38:51.144Z,99490.88
2023-11-26T09:41:23.546Z,99489.34
2023-11-26T09:43:52.632Z,99496.84
2023-11-26T09:46:24.888Z,99503.00
2023-11-26T09:48:53.617Z,99501.50
2023-11-26T09:51:28.479Z,99510.50
2023-11-26T09:53:57.062Z,99517.94
2023-11-26T09:56:26.664Z,99520.00
2023-11-26T09:58:54.970Z,99520.31
2023-11-26T10:01:23.653Z,99523.66
2023-11-26T10:04:06.935Z,99536.75
2023-11-26T10:06:35.629Z,99539.34
2023-11-26T10:09:21.131Z,99548.13
2023-11-26T10:11:50.631Z,99552.00
2023-11-26T10:14:23.778Z,99560.25
2023-11-26T10:16:52.164Z,99563.38
2023-11-26T10:19:29.673Z,99575.72
2023-11-26T10:22:00.829Z,99574.50
2023-11-26T10:24:31.254Z,99576.81
2023-11-26T10:27:03.217Z,99586.88
2023-11-26T10:29:34.932Z,99590.00
2023-11-26T10:32:08.506Z,99583.69
2023-11-26T10:34:38.429Z,99591.91
2023-11-26T10:37:25.301Z,99593.50
2023-11-26T10:39:55.110Z,99590.19
2023-11-26T10:42:24.323Z,99588.41
2023-11-26T10:44:54.256Z,99582.31
2023-11-26T10:47:26.379Z,99592.56
2023-11-26T10:49:58.111Z,99602.09
2023-11-26T10:52:52.556Z,99613.66
2023-11-26T10:55:29.387Z,99619.59
2023-11-26T10:58:08.380Z,99621.94
2023-11-26T11:00:39.417Z,99626.06
2023-11-26T11:03:09.345Z,99624.38
2023-11-26T11:05:38.985Z,99623.44
2023-11-26T11:08:08.439Z,99631.69
2023-11-26T11:10:54.631Z,99640.41
2023-11-26T11:13:25.061Z,99647.16
2023-11-26T11:15:54.606Z,99642.59
2023-11-26T11:18:29.649Z,99651.59
2023-11-26T11:21:14.944Z,99651.91
2023-11-26T11:23:48.910Z,99650.94
2023-11-26T11:26:19.492Z,99656.84
2023-11-26T11:29:02.375Z,99667.34
2023-11-26T11:32:00.849Z,99666.88
2023-11-26T11:34:29.686Z,99671.25
2023-11-26T11:37:00.364Z,99674.28
2023-11-26T11:39:51.795Z,99666.13
2023-11-26T11:42:29.263Z,99673.31
2023-11-26T11:44:58.290Z,99674.34
2023-11-26T11:47:44.686Z,99678.94
2023-11-26T11:50:16.605Z,99671.78
2023-11-26T11:52:47.103Z,99676.94
2023-11-26T11:55:31.222Z,99672.09
2023-11-26T11:58:13.820Z,99679.50
2023-11-26T12:00:45.798Z,99676.22
2023-11-26T12:03:19.953Z,99680.81
2023-11-26T12:05:49.010Z,99690.53
2023-11-26T12:08:17.847Z,99696.69
2023-11-26T12:10:46.514Z,99697.97
2023-11-26T12:13:15.077Z,99708.94
2023-11-26T12:15:57.019Z,99706.38
2023-11-26T12:18:25.868Z,99714.56
2023-11-26T12:20:54.495Z,99714.31
2023-11-26T12:23:36.658Z,99718.91
2023-11-26T12:26:06.013Z,99725.06
2023-11-26T12:28:44.828Z,99726.09
2023-11-26T12:31:14.602Z,99725.84
2023-11-26T12:33:47.996Z,99724.06
2023-11-26T12:36:17.977Z,99725.84
2023-11-26T12:38:47.010Z,99724.81
2023-11-26T12:41:15.872Z,99723.78
2023-11-26T12:43:45.066Z,99723.50
2023-11-26T12:46:19.178Z,99724.03
2023-11-26T12:48:47.799Z,99734.50
2023-11-26T12:51:19.974Z,99732.97
2023-11-26T12:53:58.392Z,99738.59
2023-11-26T12:56:28.936Z,99744.19
2023-11-26T12:59:04.845Z,99744.97
2023-11-26T13:01:37.076Z,99749.56
2023-11-26T13:04:09.187Z,99753.91
2023-11-26T13:06:58.535Z,99754.66
2023-11-26T13:09:27.297Z,99745.22
2023-11-26T13:12:03.678Z,99760.03
2023-11-26T13:14:32.292Z,99760.53
2023-11-26T13:17:01.134Z,99765.41
2023-11-26T13:19:29.817Z,99769.75
2023-11-26T13:21:58.379Z,99763.59
2023-11-26T13:24:27.061Z,99758.75
2023-11-26T13:26:55.562Z,99759.28
2023-11-26T13:29:24.130Z,99762.06
2023-11-26T13:31:52.766Z,99767.69
2023-11-26T13:34:21.632Z,99762.59
2023-11-26T13:36:52.338Z,99763.88
2023-11-26T13:39:23.872Z,99770.25
2023-11-26T13:41:52.512Z,99770.00
2023-11-26T13:44:22.555Z,99771.53
2023-11-26T13:46:51.775Z,99765.91
2023-11-26T13:49:21.211Z,99772.81
2023-11-26T13:51:49.873Z,99775.63
2023-11-26T13:54:18.478Z,99776.13
2023-11-26T13:56:47.118Z,99780.22
2023-11-26T13:59:15.704Z,99786.34
2023-11-26T14:01:45.742Z,99787.63
2023-11-26T14:04:14.493Z,99787.63
2023-11-26T14:06:43.272Z,99782.50
2023-11-26T14:09:13.904Z,99782.50
2023-11-26T14:11:44.583Z,99775.38
2023-11-26T14:14:15.840Z,99781.50
2023-11-26T14:16:45.092Z,99775.63
2023-11-26T14:19:14.872Z,99769.75
2023-11-26T14:21:43.542Z,99775.88
2023-11-26T14:24:12.247Z,99767.94
2023-11-26T14:26:40.852Z,99772.28
2023-11-26T14:29:09.458Z,99771.25
2023-11-26T14:31:38.007Z,99771.78
2023-11-26T14:34:06.591Z,99772.03
2023-11-26T14:36:35.140Z,99780.19
2023-11-26T14:39:03.813Z,99772.28
2023-11-26T14:41:32.332Z,99776.34
2023-11-26T14:44:00.903Z,99775.34
2023-11-26T14:46:29.528Z,99774.56
2023-11-26T14:48:59.662Z,99768.69
2023-11-26T14:51:28.263Z,99767.16
2023-11-26T14:54:00.848Z,99773.53
2023-11-26T14:56:29.497Z,99770.75
2023-11-26T14:58:57.990Z,99775.09
2023-11-26T15:01:26.685Z,99762.56
2023-11-26T15:03:55.375Z,99773.03
2023-11-26T15:06:24.049Z,99780.19
2023-11-26T15:08:52.582Z,99775.34
2023-11-26T15:11:21.180Z,99776.09
2023-11-26T15:13:49.815Z,99775.34
2023-11-26T15:16:18.385Z,99774.06
2023-11-26T15:18:46.958Z,99783.25
2023-11-26T15:21:15.549Z,99784.00
2023-11-26T15:23:44.134Z,99788.09
2023-11-26T15:26:24.100Z,99781.72
2023-11-26T15:28:52.969Z,99784.53
2023-11-26T15:31:22.637Z,99776.63
2023-11-26T15:33:51.312Z,99783.00
2023-11-26T15:36:24.081Z,99777.88
2023-11-26T15:38:56.186Z,99772.78
2023-11-26T15:41:25.841Z,99782.72
2023-11-26T15:43:55.243Z,99785.53
2023-11-26T15:46:28.069Z,99783.25
2023-11-26T15:48:58.104Z,99774.81
2023-11-26T15:51:26.712Z,99772.53
2023-11-26T15:54:02.639Z,99775.34
2023-11-26T15:56:32.900Z,99772.53
2023-11-26T15:59:01.464Z,99776.59
2023-11-26T16:01:30.890Z,99769.44
2023-11-26T16:04:00.065Z,99774.28
2023-11-26T16:06:32.443Z,99769.94
2023-11-26T16:09:01.634Z,99774.78
2023-11-26T16:11:32.804Z,99772.50
2023-11-26T16:14:02.408Z,99778.09
2023-11-26T16:16:31.048Z,99776.56
2023-11-26T16:18:59.767Z,99776.56
2023-11-26T16:21:31.553Z,99772.22
2023-11-26T16:24:01.377Z,99769.94
2023-11-26T16:26:30.448Z,99767.13
2023-11-26T16:28:59.031Z,99763.56
2023-11-26T16:31:27.789Z,99771.22
2023-11-26T16:33:56.547Z,99759.97
2023-11-26T16:36:26.369Z,99762.00
2023-11-26T16:38:54.985Z,99763.28
2023-11-26T16:41:23.605Z,99763.28
2023-11-26T16:43:52.311Z,99760.97
2023-11-26T16:46:20.848Z,99758.16
2023-11-26T16:48:49.549Z,99756.63
2023-11-26T16:51:18.133Z,99752.28
2023-11-26T16:53:47.315Z,99752.28
2023-11-26T16:56:16.689Z,99742.34
2023-11-26T16:58:45.289Z,99743.63
2023-11-26T17:01:14.060Z,99745.66
2023-11-26T17:03:43.072Z,99742.59
2023-11-26T17:06:11.661Z,99743.38
2023-11-26T17:08:40.196Z,99738.25
2023-11-26T17:11:10.583Z,99740.28
2023-11-26T17:13:39.216Z,99732.38
2023-11-26T17:16:08.323Z,99729.59
2023-11-26T17:18:37.089Z,99737.25
2023-11-26T17:21:05.956Z,99731.38
2023-11-26T17:23:34.552Z,99732.66
2023-11-26T17:26:03.170Z,99731.63
2023-11-26T17:28:32.250Z,99738.47
2023-11-26T17:31:00.892Z,99737.72
2023-11-26T17:33:29.684Z,99733.38
2023-11-26T17:35:58.798Z,99737.44
2023-11-26T17:38:27.437Z,99735.16
2023-11-26T17:40:56.006Z,99742.81
2023-11-26T17:43:26.600Z,99741.78
2023-11-26T17:45:56.972Z,99738.72
2023-11-26T17:48:25.532Z,99740.75
2023-11-26T17:50:54.253Z,99737.69
2023-11-26T17:53:23.470Z,99737.44
2023-11-26T17:55:52.059Z,99739.97
2023-11-26T17:58:20.754Z,99736.41
2023-11-26T18:00:50.503Z,99741.75
2023-11-26T18:03:20.232Z,99741.00
2023-11-26T18:05:50.733Z,99738.69
2023-11-26T18:08:19.483Z,99733.59
2023-11-26T18:10:48.588Z,99734.09
2023-11-26T18:13:17.168Z,99735.09
2023-11-26T18:15:46.486Z,99726.41
2023-11-26T18:18:15.186Z,99722.06
2023-11-26T18:20:43.748Z,99724.63
2023-11-26T18:23:12.348Z,99722.56
2023-11-26T18:25:40.925Z,99720.28
2023-11-26T18:28:09.467Z,99721.81
2023-11-26T18:30:39.218Z,99717.47
2023-11-26T18:33:07.991Z,99719.50
2023-11-26T18:35:36.544Z,99720.00
2023-11-26T18:38:05.088Z,99726.38
2023-11-26T18:40:33.652Z,99716.44
2023-11-26T18:43:02.250Z,99717.72
2023-11-26T18:45:30.841Z,99720.25
2023-11-26T18:48:00.458Z,99708.28
2023-11-26T18:50:29.121Z,99712.34
2023-11-26T18:52:57.672Z,99701.13
2023-11-26T18:55:26.395Z,99702.41
2023-11-26T18:57:55.051Z,99698.59
2023-11-26T19:00:23.743Z,99695.50
2023-11-26T19:02:52.458Z,99685.56
2023-11-26T19:05:21.055Z,99688.13
2023-11-26T19:07:49.651Z,99686.56
2023-11-26T19:10:20.139Z,99682.22
2023-11-26T19:12:48.820Z,99685.53
2023-11-26T19:15:18.027Z,99684.00
2023-11-26T19:17:46.585Z,99678.88
2023-11-26T19:20:15.378Z,99677.34
2023-11-26T19:22:44.101Z,99677.34
2023-11-26T19:25:12.970Z,99669.44
2023-11-26T19:27:41.829Z,99664.34
2023-11-26T19:30:10.723Z,99668.16
2023-11-26T19:32:39.353Z,99663.56
2023-11-26T19:35:08.133Z,99656.91
2023-11-26T19:37:36.775Z,99658.69
2023-11-26T19:40:05.581Z,99656.41
2023-11-26T19:42:34.248Z,99660.97
2023-11-26T19:45:03.285Z,99662.75
2023-11-26T19:47:31.868Z,99664.03
2023-11-26T19:50:00.413Z,99654.06
2023-11-26T19:52:29.011Z,99672.16
2023-11-26T19:54:57.620Z,99663.00
2023-11-26T19:57:26.171Z,99670.63
2023-11-26T19:59:54.841Z,99661.94
2023-11-26T20:02:23.508Z,99663.97
2023-11-26T20:04:52.323Z,99663.72
2023-11-26T20:07:20.978Z,99664.22
2023-11-26T20:09:49.530Z,99671.09
2023-11-26T20:12:18.808Z,99671.09
2023-11-26T20:14:47.548Z,99663.19
2023-11-26T20:17:16.063Z,99663.94
2023-11-26T20:19:44.664Z,99660.13
2023-11-26T20:22:13.434Z,99658.09
2023-11-26T20:24:41.995Z,99657.31
2023-11-26T20:27:10.482Z,99663.41
2023-11-26T20:29:39.517Z,99668.25
2023-11-26T20:32:08.548Z,99670.28
2023-11-26T20:34:37.210Z,99662.91
2023-11-26T20:37:06.484Z,99664.94
2023-11-26T20:39:35.414Z,99658.31
2023-11-26T20:42:04.845Z,99661.09
2023-11-26T20:44:33.435Z,99658.81
2023-11-26T20:47:05.481Z,99666.44
2023-11-26T20:49:37.184Z,99661.34
2023-11-26T20:52:05.962Z,99662.59
2023-11-26T20:54:35.533Z,99665.91
2023-11-26T20:57:05.453Z,99662.84
2023-11-26T20:59:36.145Z,99668.16
2023-11-26T21:02:04.986Z,99662.28
2023-11-26T21:04:34.701Z,99665.59
2023-11-26T21:07:03.362Z,99664.06
2023-11-26T21:09:32.078Z,99665.31
2023-11-26T21:12:00.779Z,99665.81
2023-11-26T21:14:29.361Z,99672.69
2023-11-26T21:19:28.480Z,99677.25
2023-11-26T21:21:57.055Z,99678.50
2023-11-26T21:24:25.640Z,99681.31
2023-11-26T21:26:54.744Z,99677.75
2023-11-26T21:29:23.409Z,99686.63
2023-11-26T21:31:52.054Z,99687.91
2023-11-26T21:34:20.730Z,99688.41
2023-11-26T21:36:49.349Z,99692.47
2023-11-26T21:39:18.083Z,99694.25
2023-11-26T21:41:46.933Z,99699.06
2023-11-26T21:44:15.787Z,99698.53
2023-11-26T21:46:44.623Z,99701.53
2023-11-26T21:49:13.390Z,99699.25
2023-11-26T21:51:43.799Z,99699.75
2023-11-26T21:54:12.971Z,99692.59
2023-11-26T21:56:41.530Z,99706.59
2023-11-26T21:59:10.227Z,99710.66
2023-11-26T22:01:39.478Z,99713.47
2023-11-26T22:04:08.212Z,99710.66
2023-11-26T22:06:37.007Z,99711.16
2023-11-26T22:09:06.492Z,99704.03
2023-11-26T22:11:35.103Z,99714.47
2023-11-26T22:14:03.679Z,99715.72
2023-11-26T22:16:32.333Z,99726.91
2023-11-26T22:19:03.209Z,99726.16
2023-11-26T22:21:33.943Z,99735.31
2023-11-26T22:24:04.954Z,99736.59
2023-11-26T22:26:40.520Z,99734.56
2023-11-26T22:29:09.145Z,99729.44
2023-11-26T22:31:38.174Z,99737.84
2023-11-26T22:34:06.978Z,99738.63
2023-11-26T22:36:35.940Z,99741.91
2023-11-26T22:39:05.067Z,99740.38
2023-11-26T22:41:33.927Z,99749.28
2023-11-26T22:44:02.596Z,99746.19
2023-11-26T22:46:32.628Z,99755.38
2023-11-26T22:49:01.525Z,99752.28
2023-11-26T22:51:30.355Z,99747.97
2023-11-26T22:53:58.949Z,99759.16
2023-11-26T22:56:28.115Z,99752.78
2023-11-26T22:58:56.907Z,99764.00
2023-11-26T23:01:26.127Z,99763.22
2023-11-26T23:03:55.502Z,99757.34
2023-11-26T23:06:24.282Z,99767.78
2023-11-26T23:08:52.948Z,99771.34
2023-11-26T23:11:21.635Z,99773.38
2023-11-26T23:13:53.178Z,99773.88
2023-11-26T23:16:23.393Z,99774.63
2023-11-26T23:18:52.593Z,99775.13
2023-11-26T23:21:22.040Z,99780.72
2023-11-26T23:23:53.140Z,99783.22
2023-11-26T23:26:23.192Z,99779.66
2023-11-26T23:28:52.657Z,99793.66
2023-11-26T23:31:24.546Z,99789.31
2023-11-26T23:33:53.250Z,99797.72
2023-11-26T23:36:21.871Z,99790.59
2023-11-26T23:38:50.477Z,99805.34
2023-11-26T23:41:19.253Z,99807.38
2023-11-26T23:43:47.932Z,99812.19
2023-11-26T23:46:16.602Z,99808.63
2023-11-26T23:48:45.254Z,99815.50
2023-11-26T23:51:13.895Z,99823.13
2023-11-26T23:53:42.469Z,99829.97
2023-11-26T23:56:12.002Z,99834.03
2023-11-26T23:58:40.786Z,99832.50
